createdAt,value
2023-04-12T00:00:45.710Z,8.84
2023-04-12T00:01:45.798Z,8.82
2023-04-12T00:02:45.890Z,8.82
2023-04-12T00:03:45.710Z,8.79
2023-04-12T00:04:45.771Z,8.79
2023-04-12T00:05:45.492Z,8.79
2023-04-12T00:06:45.473Z,8.81
2023-04-12T00:07:45.466Z,8.84
2023-04-12T00:08:45.456Z,8.89
2023-04-12T00:09:45.435Z,8.89
2023-04-12T00:10:45.412Z,8.90
2023-04-12T00:11:45.417Z,8.86
2023-04-12T00:12:45.388Z,8.82
2023-04-12T00:13:45.370Z,8.78
2023-04-12T00:14:45.367Z,8.78
2023-04-12T00:15:52.753Z,8.78
2023-04-12T00:16:45.308Z,8.78
2023-04-12T00:17:45.354Z,8.77
2023-04-12T00:18:45.290Z,8.77
2023-04-12T00:19:45.288Z,8.78
2023-04-12T00:20:45.283Z,8.79
2023-04-12T00:21:45.260Z,8.82
2023-04-12T00:22:45.246Z,8.84
2023-04-12T00:23:45.259Z,8.87
2023-04-12T00:24:45.231Z,8.89
2023-04-12T00:25:45.212Z,8.92
2023-04-12T00:26:45.182Z,8.95
2023-04-12T00:27:45.179Z,8.95
2023-04-12T00:28:45.151Z,8.95
2023-04-12T00:29:45.147Z,8.95
2023-04-12T00:30:45.149Z,8.96
2023-04-12T00:31:45.217Z,8.93
2023-04-12T00:32:45.116Z,8.89
2023-04-12T00:33:45.096Z,8.87
2023-04-12T00:34:45.071Z,8.87
2023-04-12T00:35:45.151Z,8.89
2023-04-12T00:36:45.038Z,8.87
2023-04-12T00:37:45.033Z,8.90
2023-04-12T00:38:45.008Z,8.90
2023-04-12T00:39:45.008Z,8.90
2023-04-12T00:40:45.011Z,8.90
2023-04-12T00:41:44.972Z,8.92
2023-04-12T00:42:44.961Z,8.92
2023-04-12T00:43:44.952Z,8.92
2023-04-12T00:44:44.927Z,8.95
2023-04-12T00:45:44.941Z,8.96
2023-04-12T00:46:44.918Z,8.93
2023-04-12T00:47:44.971Z,8.93
2023-04-12T00:48:44.883Z,8.93
2023-04-12T00:49:44.885Z,8.89
2023-04-12T00:50:44.919Z,8.87
2023-04-12T00:51:44.845Z,8.86
2023-04-12T00:52:44.834Z,8.84
2023-04-12T00:53:44.813Z,8.84
2023-04-12T00:54:44.835Z,8.84
2023-04-12T00:55:44.831Z,8.82
2023-04-12T00:56:44.767Z,8.81
2023-04-12T00:57:44.767Z,8.81
2023-04-12T00:58:44.758Z,8.79
2023-04-12T00:59:44.735Z,8.81
2023-04-12T01:00:44.791Z,8.79
2023-04-12T01:01:44.751Z,8.81
2023-04-12T01:02:44.903Z,8.78
2023-04-12T01:03:44.743Z,8.78
2023-04-12T01:04:44.655Z,8.78
2023-04-12T01:05:44.671Z,8.79
2023-04-12T01:06:44.645Z,8.79
2023-04-12T01:07:44.655Z,8.75
2023-04-12T01:08:44.607Z,8.77
2023-04-12T01:09:44.605Z,8.74
2023-04-12T01:10:44.601Z,8.74
2023-04-12T01:11:44.579Z,8.68
2023-04-12T01:12:44.567Z,8.66
2023-04-12T01:13:44.552Z,8.64
2023-04-12T01:14:44.530Z,8.61
2023-04-12T01:15:44.547Z,8.60
2023-04-12T01:16:44.672Z,8.61
2023-04-12T01:17:44.519Z,8.59
2023-04-12T01:18:44.474Z,8.57
2023-04-12T01:19:44.463Z,8.57
2023-04-12T01:20:44.495Z,8.59
2023-04-12T01:21:44.442Z,8.57
2023-04-12T01:22:44.414Z,8.56
2023-04-12T01:23:44.408Z,8.54
2023-04-12T01:24:44.385Z,8.53
2023-04-12T01:25:44.381Z,8.54
2023-04-12T01:26:44.472Z,8.53
2023-04-12T01:27:44.359Z,8.53
2023-04-12T01:28:44.338Z,8.52
2023-04-12T01:29:44.315Z,8.52
2023-04-12T01:30:44.313Z,8.52
2023-04-12T01:31:44.452Z,8.53
2023-04-12T01:32:44.305Z,8.52
2023-04-12T01:33:44.283Z,8.54
2023-04-12T01:34:44.258Z,8.56
2023-04-12T01:35:44.276Z,8.54
2023-04-12T01:36:44.244Z,8.56
2023-04-12T01:37:44.218Z,8.54
2023-04-12T01:38:44.205Z,8.56
2023-04-12T01:39:44.206Z,8.56
2023-04-12T01:40:44.184Z,8.54
2023-04-12T01:41:44.195Z,8.53
2023-04-12T01:42:44.152Z,8.53
2023-04-12T01:43:44.167Z,8.52
2023-04-12T01:44:44.134Z,8.53
2023-04-12T01:45:44.185Z,8.52
2023-04-12T01:46:44.112Z,8.52
2023-04-12T01:47:44.114Z,8.50
2023-04-12T01:48:44.068Z,8.53
2023-04-12T01:49:44.066Z,8.50
2023-04-12T01:50:44.046Z,8.49
2023-04-12T01:51:44.054Z,8.46
2023-04-12T01:52:44.021Z,8.50
2023-04-12T01:53:44.007Z,8.52
2023-04-12T01:54:43.992Z,8.54
2023-04-12T01:55:43.975Z,8.56
2023-04-12T01:56:43.982Z,8.56
2023-04-12T01:57:43.960Z,8.61
2023-04-12T01:58:43.938Z,8.61
2023-04-12T01:59:43.924Z,8.61
2023-04-12T02:00:43.987Z,8.59
2023-04-12T02:01:44.127Z,8.57
2023-04-12T02:02:44.002Z,8.57
2023-04-12T02:03:43.963Z,8.59
2023-04-12T02:04:43.857Z,8.59
2023-04-12T02:05:43.846Z,8.61
2023-04-12T02:06:43.842Z,8.60
2023-04-12T02:07:43.816Z,8.63
2023-04-12T02:08:43.794Z,8.63
2023-04-12T02:09:43.785Z,8.64
2023-04-12T02:10:43.773Z,8.63
2023-04-12T02:11:43.777Z,8.63
2023-04-12T02:12:43.758Z,8.64
2023-04-12T02:13:43.725Z,8.64
2023-04-12T02:14:43.716Z,8.64
2023-04-12T02:15:43.702Z,8.68
2023-04-12T02:16:43.736Z,8.66
2023-04-12T02:17:43.707Z,8.66
2023-04-12T02:18:43.664Z,8.64
2023-04-12T02:19:43.654Z,8.61
2023-04-12T02:20:43.636Z,8.60
2023-04-12T02:21:43.636Z,8.59
2023-04-12T02:22:43.603Z,8.61
2023-04-12T02:23:43.598Z,8.61
2023-04-12T02:24:43.574Z,8.61
2023-04-12T02:25:43.565Z,8.63
2023-04-12T02:26:43.576Z,8.66
2023-04-12T02:27:43.535Z,8.71
2023-04-12T02:28:43.519Z,8.74
2023-04-12T02:29:43.513Z,8.78
2023-04-12T02:30:43.563Z,8.81
2023-04-12T02:31:43.505Z,8.86
2023-04-12T02:32:43.502Z,8.89
2023-04-12T02:33:43.453Z,8.92
2023-04-12T02:34:43.440Z,8.93
2023-04-12T02:35:43.484Z,8.96
2023-04-12T02:36:43.428Z,8.97
2023-04-12T02:37:43.404Z,8.99
2023-04-12T02:38:43.382Z,8.96
2023-04-12T02:39:43.395Z,8.99
2023-04-12T02:40:43.361Z,8.97
2023-04-12T02:41:43.366Z,8.99
2023-04-12T02:42:43.336Z,9.00
2023-04-12T02:43:43.314Z,9.00
2023-04-12T02:44:43.297Z,9.02
2023-04-12T02:45:43.307Z,9.02
2023-04-12T02:46:43.306Z,9.02
2023-04-12T02:47:43.282Z,9.00
2023-04-12T02:48:43.247Z,9.00
2023-04-12T02:49:43.285Z,8.97
2023-04-12T02:50:43.228Z,8.99
2023-04-12T02:51:43.233Z,8.96
2023-04-12T02:52:43.206Z,8.96
2023-04-12T02:53:43.182Z,8.95
2023-04-12T02:54:43.167Z,8.93
2023-04-12T02:55:43.191Z,8.90
2023-04-12T02:56:43.128Z,8.90
2023-04-12T02:57:43.125Z,8.95
2023-04-12T02:58:43.109Z,8.95
2023-04-12T02:59:43.105Z,8.96
2023-04-12T03:00:43.102Z,8.96
2023-04-12T03:01:43.149Z,8.96
2023-04-12T03:02:43.317Z,8.97
2023-04-12T03:03:43.134Z,8.99
2023-04-12T03:04:43.027Z,9.00
2023-04-12T03:05:43.032Z,8.97
2023-04-12T03:06:43.004Z,8.96
2023-04-12T03:07:42.985Z,8.95
2023-04-12T03:08:43.011Z,8.93
2023-04-12T03:09:42.964Z,8.93
2023-04-12T03:10:42.964Z,8.93
2023-04-12T03:11:42.937Z,8.92
2023-04-12T03:12:42.930Z,8.93
2023-04-12T03:13:42.942Z,8.95
2023-04-12T03:14:42.889Z,8.95
2023-04-12T03:15:42.917Z,8.93
2023-04-12T03:16:42.864Z,8.93
2023-04-12T03:17:43.030Z,8.92
2023-04-12T03:18:42.834Z,8.90
2023-04-12T03:19:42.824Z,8.90
2023-04-12T03:20:43.731Z,8.89
2023-04-12T03:21:42.792Z,8.87
2023-04-12T03:22:42.782Z,8.86
2023-04-12T03:23:42.755Z,8.84
2023-04-12T03:24:42.752Z,8.87
2023-04-12T03:25:42.750Z,8.84
2023-04-12T03:26:42.722Z,8.82
2023-04-12T03:27:42.705Z,8.84
2023-04-12T03:28:42.702Z,8.86
2023-04-12T03:29:42.685Z,8.82
2023-04-12T03:30:42.737Z,8.82
2023-04-12T03:31:42.715Z,8.82
2023-04-12T03:32:42.683Z,8.86
2023-04-12T03:33:42.625Z,8.84
2023-04-12T03:34:42.614Z,8.84
2023-04-12T03:35:42.683Z,8.87
2023-04-12T03:36:42.648Z,8.89
2023-04-12T03:37:42.632Z,8.89
2023-04-12T03:38:42.560Z,8.89
2023-04-12T03:39:42.550Z,8.89
2023-04-12T03:40:42.563Z,8.87
2023-04-12T03:41:42.522Z,8.90
2023-04-12T03:42:42.502Z,8.90
2023-04-12T03:43:42.524Z,8.92
2023-04-12T03:44:42.466Z,8.93
2023-04-12T03:45:42.477Z,8.93
2023-04-12T03:46:42.569Z,8.93
2023-04-12T03:47:42.462Z,8.93
2023-04-12T03:48:42.417Z,8.90
2023-04-12T03:49:42.403Z,8.87
2023-04-12T03:50:42.428Z,8.86
2023-04-12T03:51:42.386Z,8.86
2023-04-12T03:52:42.354Z,8.84
2023-04-12T03:53:42.353Z,8.84
2023-04-12T03:54:42.335Z,8.84
2023-04-12T03:55:42.356Z,8.87
2023-04-12T03:56:43.223Z,8.87
2023-04-12T03:57:42.286Z,8.87
2023-04-12T03:58:42.277Z,8.89
2023-04-12T03:59:42.264Z,8.89
2023-04-12T04:00:42.291Z,8.87
2023-04-12T04:01:42.241Z,8.87
2023-04-12T04:02:42.307Z,8.87
2023-04-12T04:03:42.438Z,8.86
2023-04-12T04:04:42.234Z,8.84
2023-04-12T04:05:42.211Z,8.81
2023-04-12T04:06:42.174Z,8.82
2023-04-12T04:07:42.155Z,8.81
2023-04-12T04:08:42.156Z,8.81
2023-04-12T04:09:42.163Z,8.81
2023-04-12T04:10:42.121Z,8.81
2023-04-12T04:11:42.119Z,8.78
2023-04-12T04:12:42.084Z,8.79
2023-04-12T04:13:42.083Z,8.79
2023-04-12T04:14:42.078Z,8.77
2023-04-12T04:15:42.056Z,8.74
2023-04-12T04:16:42.212Z,8.74
2023-04-12T04:17:42.051Z,8.72
2023-04-12T04:18:42.012Z,8.72
2023-04-12T04:19:41.984Z,8.71
2023-04-12T04:20:41.985Z,8.66
2023-04-12T04:21:41.977Z,8.66
2023-04-12T04:22:41.961Z,8.66
2023-04-12T04:23:41.940Z,8.66
2023-04-12T04:24:41.937Z,8.64
2023-04-12T04:25:41.913Z,8.64
2023-04-12T04:26:41.943Z,8.66
2023-04-12T04:27:41.891Z,8.64
2023-04-12T04:28:41.868Z,8.66
2023-04-12T04:29:41.864Z,8.64
2023-04-12T04:30:41.861Z,8.64
2023-04-12T04:31:41.893Z,8.64
2023-04-12T04:32:41.879Z,8.63
2023-04-12T04:33:41.837Z,8.64
2023-04-12T04:34:41.788Z,8.64
2023-04-12T04:35:41.804Z,8.63
2023-04-12T04:36:41.789Z,8.63
2023-04-12T04:37:41.751Z,8.64
2023-04-12T04:38:41.749Z,8.66
2023-04-12T04:39:41.728Z,8.64
2023-04-12T04:40:41.721Z,8.64
2023-04-12T04:41:41.744Z,8.63
2023-04-12T04:42:41.682Z,8.61
2023-04-12T04:43:41.669Z,8.61
2023-04-12T04:44:41.665Z,8.63
2023-04-12T04:45:41.688Z,8.66
2023-04-12T04:46:41.656Z,8.64
2023-04-12T04:47:41.657Z,8.66
2023-04-12T04:48:41.607Z,8.66
2023-04-12T04:49:41.588Z,8.64
2023-04-12T04:50:41.572Z,8.66
2023-04-12T04:51:41.597Z,8.66
2023-04-12T04:52:41.548Z,8.64
2023-04-12T04:53:41.536Z,8.61
2023-04-12T04:54:41.525Z,8.60
2023-04-12T04:55:41.512Z,8.61
2023-04-12T04:56:41.516Z,8.59
2023-04-12T04:57:41.488Z,8.59
2023-04-12T04:58:41.478Z,8.59
2023-04-12T04:59:41.451Z,8.56
2023-04-12T05:00:41.448Z,8.54
2023-04-12T05:01:41.648Z,8.56
2023-04-12T05:02:41.604Z,8.54
2023-04-12T05:03:41.467Z,8.52
2023-04-12T05:04:41.380Z,8.50
2023-04-12T05:05:41.368Z,8.46
2023-04-12T05:06:41.387Z,8.46
2023-04-12T05:07:41.334Z,8.45
2023-04-12T05:08:41.336Z,8.46
2023-04-12T05:09:41.310Z,8.46
2023-04-12T05:10:41.317Z,8.46
2023-04-12T05:11:41.286Z,8.46
2023-04-12T05:12:41.272Z,8.49
2023-04-12T05:13:41.257Z,8.50
2023-04-12T05:14:47.369Z,8.52
2023-04-12T05:15:42.228Z,8.57
2023-04-12T05:16:41.281Z,8.59
2023-04-12T05:17:41.258Z,8.60
2023-04-12T05:18:41.200Z,8.59
2023-04-12T05:19:41.176Z,8.59
2023-04-12T05:20:41.174Z,8.59
2023-04-12T05:21:41.166Z,8.61
2023-04-12T05:22:41.144Z,8.63
2023-04-12T05:23:41.126Z,8.63
2023-04-12T05:24:41.130Z,8.61
2023-04-12T05:25:41.095Z,8.66
2023-04-12T05:26:41.102Z,8.66
2023-04-12T05:27:41.048Z,8.66
2023-04-12T05:28:41.034Z,8.66
2023-04-12T05:29:41.036Z,8.66
2023-04-12T05:30:41.035Z,8.68
2023-04-12T05:31:41.026Z,8.66
2023-04-12T05:32:41.055Z,8.71
2023-04-12T05:33:40.975Z,8.69
2023-04-12T05:34:40.977Z,8.69
2023-04-12T05:35:40.975Z,8.68
2023-04-12T05:36:40.963Z,8.69
2023-04-12T05:37:40.917Z,8.69
2023-04-12T05:38:40.917Z,8.69
2023-04-12T05:39:40.897Z,8.69
2023-04-12T05:40:40.894Z,8.71
2023-04-12T05:41:40.886Z,8.69
2023-04-12T05:42:40.863Z,8.71
2023-04-12T05:43:40.849Z,8.71
2023-04-12T05:44:40.847Z,8.69
2023-04-12T05:45:40.836Z,8.69
2023-04-12T05:46:41.009Z,8.71
2023-04-12T05:47:40.846Z,8.72
2023-04-12T05:48:40.795Z,8.72
2023-04-12T05:49:40.771Z,8.72
2023-04-12T05:50:40.753Z,8.74
2023-04-12T05:51:41.678Z,8.72
2023-04-12T05:52:40.719Z,8.74
2023-04-12T05:53:40.716Z,8.74
2023-04-12T05:54:40.700Z,8.74
2023-04-12T05:55:40.689Z,8.74
2023-04-12T05:56:40.737Z,8.77
2023-04-12T05:57:40.661Z,8.75
2023-04-12T05:58:40.710Z,8.75
2023-04-12T05:59:40.616Z,8.77
2023-04-12T06:00:40.622Z,8.75
2023-04-12T06:01:40.707Z,8.74
2023-04-12T06:02:40.835Z,8.75
2023-04-12T06:03:40.775Z,8.75
2023-04-12T06:04:50.172Z,8.75
2023-04-12T06:05:41.788Z,8.77
2023-04-12T06:06:40.534Z,8.78
2023-04-12T06:07:40.557Z,8.79
2023-04-12T06:08:40.567Z,8.81
2023-04-12T06:09:40.487Z,8.81
2023-04-12T06:10:40.484Z,8.81
2023-04-12T06:11:40.473Z,8.82
2023-04-12T06:12:40.484Z,8.84
2023-04-12T06:13:40.443Z,8.79
2023-04-12T06:14:40.441Z,8.81
2023-04-12T06:15:40.438Z,8.79
2023-04-12T06:16:41.930Z,8.78
2023-04-12T06:17:47.651Z,8.75
2023-04-12T06:18:40.447Z,8.72
2023-04-12T06:19:40.487Z,8.74
2023-04-12T06:20:40.360Z,8.72
2023-04-12T06:21:40.364Z,8.74
2023-04-12T06:22:40.385Z,8.74
2023-04-12T06:23:40.352Z,8.72
2023-04-12T06:24:40.324Z,8.74
2023-04-12T06:25:40.284Z,8.75
2023-04-12T06:26:40.491Z,8.72
2023-04-12T06:27:40.372Z,8.72
2023-04-12T06:28:40.276Z,8.72
2023-04-12T06:29:40.228Z,8.72
2023-04-12T06:30:40.220Z,8.71
2023-04-12T06:31:40.259Z,8.72
2023-04-12T06:32:40.235Z,8.74
2023-04-12T06:33:40.170Z,8.74
2023-04-12T06:34:40.163Z,8.72
2023-04-12T06:35:40.203Z,8.72
2023-04-12T06:36:40.163Z,8.71
2023-04-12T06:37:40.135Z,8.71
2023-04-12T06:38:42.469Z,8.69
2023-04-12T06:39:40.110Z,8.68
2023-04-12T06:40:40.169Z,8.66
2023-04-12T06:41:40.058Z,8.68
2023-04-12T06:42:40.067Z,8.68
2023-04-12T06:43:40.054Z,8.68
2023-04-12T06:44:40.019Z,8.69
2023-04-12T06:45:40.155Z,8.71
2023-04-12T06:46:40.037Z,8.72
2023-04-12T06:47:40.027Z,8.75
2023-04-12T06:48:40.879Z,8.77
2023-04-12T06:49:39.942Z,8.78
2023-04-12T06:50:39.936Z,8.79
2023-04-12T06:51:39.950Z,8.84
2023-04-12T06:52:39.926Z,8.84
2023-04-12T06:53:39.885Z,8.90
2023-04-12T06:54:39.896Z,8.92
2023-04-12T06:55:39.864Z,8.97
2023-04-12T06:56:39.845Z,8.99
2023-04-12T06:57:39.886Z,9.03
2023-04-12T06:58:39.818Z,9.08
2023-04-12T06:59:39.803Z,9.11
2023-04-12T07:00:39.869Z,9.12
2023-04-12T07:01:41.332Z,9.13
2023-04-12T07:02:39.991Z,9.13
2023-04-12T07:03:39.874Z,9.13
2023-04-12T07:04:39.739Z,9.11
2023-04-12T07:05:39.767Z,9.13
2023-04-12T07:06:39.722Z,9.15
2023-04-12T07:07:39.706Z,9.16
2023-04-12T07:08:39.709Z,9.18
2023-04-12T07:09:39.667Z,9.21
2023-04-12T07:10:39.679Z,9.21
2023-04-12T07:11:39.650Z,9.22
2023-04-12T07:12:39.649Z,9.24
2023-04-12T07:13:39.648Z,9.26
2023-04-12T07:14:39.666Z,9.22
2023-04-12T07:15:39.595Z,9.22
2023-04-12T07:16:39.619Z,9.24
2023-04-12T07:17:39.574Z,9.22
2023-04-12T07:18:39.590Z,9.21
2023-04-12T07:19:39.544Z,9.24
2023-04-12T07:20:39.524Z,9.24
2023-04-12T07:21:39.510Z,9.26
2023-04-12T07:22:39.493Z,9.26
2023-04-12T07:23:39.522Z,9.24
2023-04-12T07:24:39.470Z,9.24
2023-04-12T07:25:39.460Z,9.24
2023-04-12T07:26:39.445Z,9.26
2023-04-12T07:27:39.441Z,9.24
2023-04-12T07:28:39.452Z,9.24
2023-04-12T07:29:39.415Z,9.26
2023-04-12T07:30:39.384Z,9.26
2023-04-12T07:31:39.625Z,9.27
2023-04-12T07:32:39.385Z,9.27
2023-04-12T07:33:41.399Z,9.27
2023-04-12T07:34:39.457Z,9.30
2023-04-12T07:35:39.584Z,9.54
2023-04-12T07:36:39.296Z,9.81
2023-04-12T07:37:39.290Z,10.00
2023-04-12T07:38:39.291Z,10.21
2023-04-12T07:39:39.323Z,10.45
2023-04-12T07:40:39.248Z,10.59
2023-04-12T07:41:39.252Z,10.69
2023-04-12T07:42:39.221Z,10.92
2023-04-12T07:43:39.298Z,11.05
2023-04-12T07:44:39.253Z,11.15
2023-04-12T07:45:39.219Z,11.25
2023-04-12T07:46:39.183Z,11.34
2023-04-12T07:47:39.174Z,11.37
2023-04-12T07:48:39.169Z,11.48
2023-04-12T07:49:39.139Z,11.51
2023-04-12T07:50:39.111Z,11.55
2023-04-12T07:51:39.112Z,11.56
2023-04-12T07:52:39.093Z,11.55
2023-04-12T07:53:39.144Z,11.60
2023-04-12T07:54:39.064Z,11.68
2023-04-12T07:55:39.040Z,11.76
2023-04-12T07:56:39.058Z,11.83
2023-04-12T07:57:39.024Z,11.86
2023-04-12T07:58:39.020Z,11.93
2023-04-12T07:59:39.169Z,11.95
2023-04-12T08:00:39.005Z,11.81
2023-04-12T08:01:38.986Z,11.63
2023-04-12T08:02:39.108Z,11.41
2023-04-12T08:03:39.061Z,11.20
2023-04-12T08:04:38.924Z,11.01
2023-04-12T08:05:38.964Z,10.86
2023-04-12T08:06:38.895Z,10.71
2023-04-12T08:07:38.886Z,10.55
2023-04-12T08:08:38.892Z,10.43
2023-04-12T08:09:38.906Z,10.36
2023-04-12T08:10:38.846Z,10.28
2023-04-12T08:11:38.847Z,10.23
2023-04-12T08:12:38.821Z,10.17
2023-04-12T08:13:38.837Z,10.10
2023-04-12T08:14:40.471Z,10.10
2023-04-12T08:15:38.827Z,10.06
2023-04-12T08:16:38.757Z,10.05
2023-04-12T08:17:38.774Z,10.03
2023-04-12T08:18:38.781Z,10.00
2023-04-12T08:19:38.815Z,10.00
2023-04-12T08:20:38.714Z,10.00
2023-04-12T08:21:38.728Z,9.99
2023-04-12T08:22:38.684Z,9.99
2023-04-12T08:23:38.820Z,9.99
2023-04-12T08:24:38.748Z,9.97
2023-04-12T08:25:38.662Z,9.95
2023-04-12T08:26:38.638Z,9.95
2023-04-12T08:27:38.617Z,9.94
2023-04-12T08:28:39.701Z,9.92
2023-04-12T08:29:38.616Z,9.92
2023-04-12T08:30:38.608Z,9.90
2023-04-12T08:31:38.583Z,9.87
2023-04-12T08:32:38.623Z,9.87
2023-04-12T08:33:38.535Z,9.84
2023-04-12T08:34:38.570Z,9.82
2023-04-12T08:35:38.525Z,9.81
2023-04-12T08:36:38.501Z,9.80
2023-04-12T08:37:38.488Z,9.81
2023-04-12T08:38:45.609Z,9.82
2023-04-12T08:39:39.487Z,9.81
2023-04-12T08:40:38.445Z,9.85
2023-04-12T08:41:39.164Z,9.87
2023-04-12T08:42:38.408Z,9.88
2023-04-12T08:43:38.385Z,9.87
2023-04-12T08:44:38.400Z,9.88
2023-04-12T08:45:38.385Z,9.88
2023-04-12T08:46:38.388Z,9.91
2023-04-12T08:47:38.373Z,9.92
2023-04-12T08:48:38.339Z,9.92
2023-04-12T08:49:38.343Z,9.91
2023-04-12T08:50:38.311Z,9.90
2023-04-12T08:51:38.328Z,9.91
2023-04-12T08:52:38.301Z,9.90
2023-04-12T08:53:38.269Z,9.91
2023-04-12T08:54:38.292Z,9.90
2023-04-12T08:55:38.250Z,9.91
2023-04-12T08:56:38.230Z,9.90
2023-04-12T08:57:38.209Z,9.90
2023-04-12T08:58:38.195Z,9.91
2023-04-12T08:59:38.208Z,9.90
2023-04-12T09:00:38.162Z,9.91
2023-04-12T09:01:38.268Z,9.92
2023-04-12T09:02:38.498Z,9.94
2023-04-12T09:03:38.354Z,9.90
2023-04-12T09:04:38.188Z,9.94
2023-04-12T09:05:38.098Z,9.92
2023-04-12T09:06:38.092Z,9.94
2023-04-12T09:07:38.102Z,9.95
2023-04-12T09:08:38.066Z,9.99
2023-04-12T09:09:38.066Z,9.99
2023-04-12T09:10:38.200Z,10.02
2023-04-12T09:11:38.021Z,10.03
2023-04-12T09:12:38.000Z,10.05
2023-04-12T09:13:37.999Z,10.06
2023-04-12T09:14:38.026Z,10.06
2023-04-12T09:15:37.997Z,10.07
2023-04-12T09:16:38.016Z,10.07
2023-04-12T09:17:38.006Z,10.07
2023-04-12T09:18:37.915Z,10.07
2023-04-12T09:19:37.932Z,10.05
2023-04-12T09:20:37.902Z,10.05
2023-04-12T09:21:37.890Z,10.02
2023-04-12T09:22:37.854Z,10.06
2023-04-12T09:23:37.861Z,10.05
2023-04-12T09:24:37.910Z,10.06
2023-04-12T09:25:37.829Z,10.07
2023-04-12T09:26:37.829Z,10.10
2023-04-12T09:27:37.805Z,10.10
2023-04-12T09:28:37.802Z,10.10
2023-04-12T09:29:37.810Z,10.12
2023-04-12T09:30:37.758Z,10.12
2023-04-12T09:31:37.783Z,10.12
2023-04-12T09:32:37.837Z,10.15
2023-04-12T09:33:37.773Z,10.15
2023-04-12T09:34:37.722Z,10.15
2023-04-12T09:35:37.912Z,10.15
2023-04-12T09:36:37.695Z,10.17
2023-04-12T09:37:37.698Z,10.20
2023-04-12T09:38:37.659Z,10.21
2023-04-12T09:39:39.429Z,10.23
2023-04-12T09:40:37.663Z,10.24
2023-04-12T09:41:37.617Z,10.27
2023-04-12T09:42:37.614Z,10.30
2023-04-12T09:43:37.583Z,10.28
2023-04-12T09:44:37.565Z,10.28
2023-04-12T09:45:37.605Z,10.27
2023-04-12T09:46:37.599Z,10.28
2023-04-12T09:47:37.615Z,10.28
2023-04-12T09:48:37.525Z,10.30
2023-04-12T09:49:37.535Z,10.30
2023-04-12T09:50:37.535Z,10.28
2023-04-12T09:51:37.523Z,10.30
2023-04-12T09:52:37.475Z,10.34
2023-04-12T09:53:37.474Z,10.38
2023-04-12T09:54:37.454Z,10.39
2023-04-12T09:55:37.463Z,10.43
2023-04-12T09:56:37.415Z,10.45
2023-04-12T09:57:37.410Z,10.46
2023-04-12T09:58:37.399Z,10.48
2023-04-12T09:59:37.412Z,10.51
2023-04-12T10:00:37.387Z,10.53
2023-04-12T10:01:37.428Z,10.53
2023-04-12T10:02:37.526Z,10.53
2023-04-12T10:03:37.482Z,10.53
2023-04-12T10:04:37.383Z,10.53
2023-04-12T10:05:37.390Z,10.51
2023-04-12T10:06:37.473Z,10.49
2023-04-12T10:07:37.267Z,10.49
2023-04-12T10:08:37.252Z,10.49
2023-04-12T10:09:37.231Z,10.48
2023-04-12T10:10:37.240Z,10.51
2023-04-12T10:11:37.237Z,10.53
2023-04-12T10:12:37.202Z,10.55
2023-04-12T10:13:37.226Z,10.55
2023-04-12T10:14:37.181Z,10.57
2023-04-12T10:15:37.244Z,10.59
2023-04-12T10:16:37.192Z,10.61
2023-04-12T10:17:37.204Z,10.65
2023-04-12T10:18:37.109Z,10.67
2023-04-12T10:19:37.093Z,10.68
2023-04-12T10:20:37.289Z,10.69
2023-04-12T10:21:37.070Z,10.69
2023-04-12T10:22:37.085Z,10.67
2023-04-12T10:23:37.049Z,10.65
2023-04-12T10:24:37.022Z,10.67
2023-04-12T10:25:37.084Z,10.69
2023-04-12T10:26:37.012Z,10.69
2023-04-12T10:27:36.975Z,10.72
2023-04-12T10:28:37.011Z,10.77
2023-04-12T10:29:36.984Z,10.79
2023-04-12T10:30:36.962Z,10.79
2023-04-12T10:31:36.996Z,10.82
2023-04-12T10:32:36.979Z,10.80
2023-04-12T10:33:36.954Z,10.80
2023-04-12T10:34:36.922Z,10.79
2023-04-12T10:35:36.952Z,10.79
2023-04-12T10:36:36.912Z,10.79
2023-04-12T10:37:36.903Z,10.80
2023-04-12T10:38:37.538Z,10.82
2023-04-12T10:39:36.979Z,10.82
2023-04-12T10:40:36.881Z,10.83
2023-04-12T10:41:37.486Z,10.84
2023-04-12T10:42:36.901Z,10.84
2023-04-12T10:43:36.810Z,10.84
2023-04-12T10:44:36.806Z,10.84
2023-04-12T10:45:36.770Z,10.84
2023-04-12T10:46:36.857Z,10.84
2023-04-12T10:47:36.782Z,10.84
2023-04-12T10:48:36.739Z,10.86
2023-04-12T10:49:37.313Z,10.84
2023-04-12T10:50:36.695Z,10.84
2023-04-12T10:51:36.693Z,10.86
2023-04-12T10:52:36.699Z,10.89
2023-04-12T10:53:36.664Z,10.87
2023-04-12T10:54:36.656Z,10.87
2023-04-12T10:55:36.654Z,10.90
2023-04-12T10:56:36.656Z,10.92
2023-04-12T10:57:36.631Z,10.92
2023-04-12T10:58:36.619Z,10.90
2023-04-12T10:59:46.969Z,10.92
2023-04-12T11:00:37.695Z,10.94
2023-04-12T11:01:38.581Z,10.94
2023-04-12T11:02:36.717Z,10.95
2023-04-12T11:03:36.673Z,10.95
2023-04-12T11:04:36.567Z,10.95
2023-04-12T11:05:36.573Z,10.95
2023-04-12T11:06:36.521Z,10.98
2023-04-12T11:07:36.471Z,10.98
2023-04-12T11:08:36.515Z,10.97
2023-04-12T11:09:36.448Z,11.00
2023-04-12T11:10:36.431Z,11.00
2023-04-12T11:11:36.439Z,10.97
2023-04-12T11:12:36.453Z,10.97
2023-04-12T11:13:36.409Z,10.98
2023-04-12T11:14:37.135Z,11.00
2023-04-12T11:15:36.386Z,11.01
2023-04-12T11:16:36.442Z,11.04
2023-04-12T11:17:37.902Z,11.07
2023-04-12T11:18:36.431Z,11.12
2023-04-12T11:19:36.337Z,11.18
2023-04-12T11:20:36.282Z,11.19
2023-04-12T11:21:36.310Z,11.22
2023-04-12T11:22:36.282Z,11.23
2023-04-12T11:23:36.271Z,11.25
2023-04-12T11:24:36.284Z,11.25
2023-04-12T11:25:36.221Z,11.26
2023-04-12T11:26:36.244Z,11.26
2023-04-12T11:27:36.194Z,11.30
2023-04-12T11:28:36.194Z,11.31
2023-04-12T11:29:36.195Z,11.34
2023-04-12T11:30:36.147Z,11.35
2023-04-12T11:31:36.227Z,11.37
2023-04-12T11:32:36.152Z,11.41
2023-04-12T11:33:36.126Z,11.43
2023-04-12T11:34:36.107Z,11.44
2023-04-12T11:35:36.113Z,11.48
2023-04-12T11:36:36.083Z,11.51
2023-04-12T11:37:36.078Z,11.62
2023-04-12T11:38:36.054Z,11.73
2023-04-12T11:39:36.026Z,11.86
2023-04-12T11:40:36.036Z,12.00
2023-04-12T11:41:36.286Z,12.15
2023-04-12T11:42:36.008Z,12.29
2023-04-12T11:43:35.990Z,12.44
2023-04-12T11:44:52.430Z,12.57
2023-04-12T11:45:36.999Z,12.69
2023-04-12T11:46:35.988Z,12.81
2023-04-12T11:47:36.028Z,12.93
2023-04-12T11:48:36.203Z,13.02
2023-04-12T11:49:36.070Z,13.06
2023-04-12T11:50:35.969Z,13.09
2023-04-12T11:51:35.960Z,13.13
2023-04-12T11:52:35.872Z,13.21
2023-04-12T11:53:35.880Z,13.27
2023-04-12T11:54:35.996Z,13.30
2023-04-12T11:55:36.140Z,13.33
2023-04-12T11:56:36.076Z,13.31
2023-04-12T11:57:35.845Z,13.36
2023-04-12T11:58:35.776Z,13.37
2023-04-12T11:59:35.886Z,13.39
2023-04-12T12:00:36.016Z,13.40
2023-04-12T12:01:35.828Z,13.42
2023-04-12T12:02:43.041Z,13.45
2023-04-12T12:03:37.323Z,13.45
2023-04-12T12:04:36.411Z,13.47
2023-04-12T12:05:36.244Z,13.47
2023-04-12T12:06:36.102Z,13.50
2023-04-12T12:07:35.887Z,13.54
2023-04-12T12:08:35.654Z,13.57
2023-04-12T12:09:36.027Z,13.61
2023-04-12T12:10:44.369Z,13.62
2023-04-12T12:11:37.164Z,13.64
2023-04-12T12:12:35.599Z,13.65
2023-04-12T12:13:35.661Z,13.68
2023-04-12T12:14:35.620Z,13.73
2023-04-12T12:15:36.041Z,13.73
2023-04-12T12:16:35.542Z,13.73
2023-04-12T12:17:35.550Z,13.75
2023-04-12T12:18:35.710Z,13.78
2023-04-12T12:19:35.499Z,13.80
2023-04-12T12:20:35.504Z,13.83
2023-04-12T12:21:35.595Z,13.86
2023-04-12T12:22:35.467Z,13.89
2023-04-12T12:23:35.510Z,13.89
2023-04-12T12:24:38.867Z,13.91
2023-04-12T12:25:36.476Z,13.91
2023-04-12T12:26:35.458Z,14.01
2023-04-12T12:27:35.558Z,14.03
2023-04-12T12:28:35.383Z,14.16
2023-04-12T12:29:35.362Z,14.19
2023-04-12T12:30:35.392Z,14.23
2023-04-12T12:31:35.415Z,14.34
2023-04-12T12:32:35.821Z,14.33
2023-04-12T12:33:46.063Z,14.31
2023-04-12T12:34:37.139Z,14.34
2023-04-12T12:35:36.394Z,14.36
2023-04-12T12:36:35.663Z,14.33
2023-04-12T12:37:35.318Z,14.30
2023-04-12T12:38:37.024Z,14.26
2023-04-12T12:39:35.290Z,14.22
2023-04-12T12:40:35.674Z,14.16
2023-04-12T12:41:35.584Z,14.12
2023-04-12T12:42:35.363Z,14.12
2023-04-12T12:43:35.305Z,14.12
2023-04-12T12:44:37.709Z,14.13
2023-04-12T12:45:35.316Z,14.15
2023-04-12T12:47:35.234Z,14.20
2023-04-12T12:48:35.486Z,14.25
2023-04-12T12:49:35.190Z,14.22
2023-04-12T12:50:35.317Z,14.19
2023-04-12T12:51:35.310Z,14.16
2023-04-12T12:52:35.053Z,14.15
2023-04-12T12:53:35.036Z,14.15
2023-04-12T12:54:40.153Z,14.13
2023-04-12T12:55:36.099Z,14.16
2023-04-12T12:56:35.005Z,14.20
2023-04-12T12:57:35.004Z,14.33
2023-04-12T12:58:34.976Z,14.49
2023-04-12T12:59:34.994Z,14.66
2023-04-12T13:00:34.998Z,14.66
2023-04-12T13:01:35.007Z,14.67
2023-04-12T13:02:35.110Z,14.87
2023-04-12T13:03:35.077Z,15.04
2023-04-12T13:04:35.042Z,15.08
2023-04-12T13:05:34.893Z,15.02
2023-04-12T13:06:34.883Z,14.97
2023-04-12T13:07:34.856Z,14.94
2023-04-12T13:08:34.837Z,14.93
2023-04-12T13:09:34.821Z,14.97
2023-04-12T13:10:34.789Z,15.08